createdAt,value
2018-03-03T00:00:24.203Z,50.90
2018-03-03T00:02:56.286Z,43.40
2018-03-03T00:05:27.453Z,50.92
2018-03-03T00:07:58.711Z,46.78
2018-03-03T00:10:29.895Z,51.15
2018-03-03T00:13:02.121Z,53.63
2018-03-03T00:15:33.271Z,48.58
2018-03-03T00:18:04.503Z,52.10
2018-03-03T00:20:35.692Z,49.53
2018-03-03T00:23:07.685Z,49.83
2018-03-03T00:25:38.865Z,58.67
2018-03-03T00:28:10.095Z,42.53
2018-03-03T00:30:41.268Z,49.85
2018-03-03T00:33:12.765Z,57.17
2018-03-03T00:35:43.945Z,49.78
2018-03-03T00:38:15.464Z,51.00
2018-03-03T00:40:46.684Z,53.92
2018-03-03T00:43:17.920Z,42.72
2018-03-03T00:45:49.846Z,47.80
2018-03-03T00:48:21.089Z,47.33
2018-03-03T00:50:52.281Z,49.17
2018-03-03T00:53:23.451Z,46.53
2018-03-03T00:55:54.659Z,51.22
2018-03-03T00:58:26.586Z,48.17
2018-03-03T01:00:57.775Z,51.63
2018-03-03T01:03:28.994Z,48.90
2018-03-03T01:06:01.173Z,51.40
2018-03-03T01:08:32.486Z,50.42
2018-03-03T01:11:04.430Z,48.63
2018-03-03T01:13:35.668Z,45.83
2018-03-03T01:16:06.836Z,51.42
2018-03-03T01:18:38.051Z,50.88
2018-03-03T01:21:09.260Z,51.55
2018-03-03T01:23:41.641Z,44.97
2018-03-03T01:26:12.809Z,44.53
2018-03-03T01:28:44.041Z,51.20
2018-03-03T01:31:15.226Z,44.78
2018-03-03T01:33:47.198Z,49.40
2018-03-03T01:36:18.384Z,48.08
2018-03-03T01:38:49.842Z,49.95
2018-03-03T01:41:21.014Z,47.67
2018-03-03T01:43:52.433Z,49.42
2018-03-03T01:46:23.596Z,46.90
2018-03-03T01:48:54.940Z,49.65
2018-03-03T01:51:38.557Z,51.22
2018-03-03T01:54:10.499Z,49.53
2018-03-03T01:56:41.660Z,47.88
2018-03-03T01:59:13.169Z,46.55
2018-03-03T02:01:45.059Z,47.05
2018-03-03T02:04:16.308Z,49.25
2018-03-03T02:06:47.859Z,46.15
2018-03-03T02:09:19.121Z,43.58
2018-03-03T02:11:50.322Z,46.40
2018-03-03T02:14:22.658Z,43.60
2018-03-03T02:16:53.863Z,48.95
2018-03-03T02:19:25.121Z,41.08
2018-03-03T02:21:56.367Z,45.12
2018-03-03T02:24:27.613Z,46.78
2018-03-03T02:26:58.819Z,49.75
2018-03-03T02:29:30.151Z,46.22
2018-03-03T02:32:02.052Z,44.97
2018-03-03T02:34:33.302Z,44.42
2018-03-03T02:37:04.515Z,50.92
2018-03-03T02:39:36.418Z,48.28
2018-03-03T02:42:07.633Z,52.83
2018-03-03T02:44:38.827Z,52.62
2018-03-03T02:47:10.073Z,44.42
2018-03-03T02:49:41.396Z,48.63
2018-03-03T02:52:12.585Z,44.50
2018-03-03T02:54:44.552Z,48.72
2018-03-03T02:57:16.482Z,48.83
2018-03-03T02:59:47.705Z,41.55
2018-03-03T03:02:18.933Z,46.47
2018-03-03T03:04:50.156Z,46.97
2018-03-03T03:07:22.056Z,48.83
2018-03-03T03:09:53.311Z,45.10
2018-03-03T03:12:24.547Z,47.00
2018-03-03T03:14:55.803Z,44.50
2018-03-03T03:17:27.014Z,41.90
2018-03-03T03:19:58.219Z,47.75
2018-03-03T03:22:30.151Z,39.60
2018-03-03T03:25:01.464Z,48.55
2018-03-03T03:27:32.665Z,37.40
2018-03-03T03:30:04.963Z,44.28
2018-03-03T03:32:36.140Z,45.12
2018-03-03T03:35:07.360Z,45.72
2018-03-03T03:37:38.593Z,47.45
2018-03-03T03:40:09.748Z,46.65
2018-03-03T03:42:40.995Z,53.45
2018-03-03T03:45:12.172Z,49.28
2018-03-03T03:47:43.688Z,41.55
2018-03-03T03:50:14.931Z,41.72
2018-03-03T03:52:46.479Z,44.08
2018-03-03T03:55:17.650Z,45.08
2018-03-03T03:57:48.894Z,49.42
2018-03-03T04:00:20.123Z,57.40
2018-03-03T04:02:51.343Z,48.42
2018-03-03T04:05:23.309Z,45.22
2018-03-03T04:07:54.488Z,44.13
2018-03-03T04:10:25.715Z,40.83
2018-03-03T04:12:56.887Z,51.75
2018-03-03T04:15:28.896Z,48.78
2018-03-03T04:18:05.004Z,49.55
2018-03-03T04:20:36.619Z,40.65
2018-03-03T04:23:07.850Z,48.25
2018-03-03T04:25:39.832Z,44.85
2018-03-03T04:28:11.020Z,43.05
2018-03-03T04:30:43.316Z,48.42
2018-03-03T04:33:14.503Z,42.58
2018-03-03T04:35:46.029Z,42.28
2018-03-03T04:38:17.238Z,50.17
2018-03-03T04:40:49.202Z,46.08
2018-03-03T04:43:21.138Z,45.08
2018-03-03T04:45:52.386Z,42.55
2018-03-03T04:48:23.616Z,45.53
2018-03-03T04:50:54.851Z,42.88
2018-03-03T04:53:26.042Z,47.28
2018-03-03T04:55:57.288Z,48.08
2018-03-03T04:58:34.533Z,50.20
2018-03-03T05:01:05.713Z,41.65
2018-03-03T05:03:37.709Z,48.83
2018-03-03T05:06:16.735Z,43.13
2018-03-03T05:08:48.017Z,52.15
2018-03-03T05:11:19.253Z,41.15
2018-03-03T05:13:50.440Z,48.78
2018-03-03T05:16:43.396Z,44.85
2018-03-03T05:19:30.341Z,47.42
2018-03-03T05:22:17.444Z,50.03
2018-03-03T05:25:04.432Z,50.33
2018-03-03T05:27:41.892Z,47.92
2018-03-03T05:30:28.013Z,45.38
2018-03-03T05:33:18.941Z,47.60
2018-03-03T05:36:09.976Z,47.62
2018-03-03T05:38:59.446Z,46.15
2018-03-03T05:41:36.860Z,49.60
2018-03-03T05:44:14.295Z,46.00
2018-03-03T05:46:47.406Z,43.90
2018-03-03T05:49:24.658Z,39.40
2018-03-03T05:52:01.653Z,46.80
2018-03-03T05:54:39.169Z,48.28
2018-03-03T05:57:16.499Z,42.40
2018-03-03T05:59:58.423Z,51.15
2018-03-03T06:02:35.725Z,48.00
2018-03-03T06:05:13.163Z,47.33
2018-03-03T06:07:46.968Z,43.15
2018-03-03T06:10:37.011Z,45.58
2018-03-03T06:13:08.305Z,43.05
2018-03-03T06:15:39.610Z,41.35
2018-03-03T06:18:10.857Z,43.08
2018-03-03T06:20:42.072Z,48.42
2018-03-03T06:23:13.254Z,43.13
2018-03-03T06:25:44.458Z,47.33
2018-03-03T06:28:15.672Z,44.28
2018-03-03T06:30:46.847Z,49.75
2018-03-03T06:33:18.041Z,45.38
2018-03-03T06:35:49.336Z,46.00
2018-03-03T06:38:20.544Z,46.90
2018-03-03T06:40:52.455Z,47.28
2018-03-03T06:43:23.799Z,42.35
2018-03-03T06:45:54.976Z,47.50
2018-03-03T06:48:26.225Z,45.55
2018-03-03T06:50:58.164Z,52.13
2018-03-03T06:53:29.399Z,50.95
2018-03-03T06:56:00.599Z,44.72
2018-03-03T06:58:32.534Z,53.87
2018-03-03T07:01:04.136Z,51.45
2018-03-03T07:03:35.299Z,49.85
2018-03-03T07:06:06.545Z,46.05
2018-03-03T07:08:37.757Z,48.70
2018-03-03T07:11:08.972Z,54.05
2018-03-03T07:13:41.645Z,46.63
2018-03-03T07:16:12.893Z,56.42
2018-03-03T07:18:44.072Z,49.70
2018-03-03T07:21:15.303Z,53.35
2018-03-03T07:23:46.862Z,48.08
2018-03-03T07:26:18.045Z,45.88
2018-03-03T07:28:49.253Z,48.20
2018-03-03T07:31:20.430Z,55.22
2018-03-03T07:33:51.627Z,56.00
2018-03-03T07:36:22.862Z,47.88
2018-03-03T07:38:54.847Z,44.50
2018-03-03T07:41:26.098Z,46.58
2018-03-03T07:43:58.128Z,54.65
2018-03-03T07:46:29.334Z,49.22
2018-03-03T07:49:00.513Z,48.60
2018-03-03T07:51:31.728Z,50.45
2018-03-03T07:54:02.900Z,56.22
2018-03-03T07:56:46.781Z,54.45
2018-03-03T07:59:18.000Z,45.78
2018-03-03T08:01:49.183Z,47.20
2018-03-03T08:04:20.400Z,57.60
2018-03-03T08:06:51.591Z,48.20
2018-03-03T08:09:22.836Z,53.60
2018-03-03T08:11:54.067Z,50.95
2018-03-03T08:14:25.263Z,50.28
2018-03-03T08:16:56.754Z,43.80
2018-03-03T08:19:27.962Z,43.63
2018-03-03T08:21:59.136Z,45.90
2018-03-03T08:24:30.453Z,50.60
2018-03-03T08:27:01.709Z,49.50
2018-03-03T08:29:32.891Z,41.28
2018-03-03T08:32:04.424Z,46.10
2018-03-03T08:34:35.606Z,49.22
2018-03-03T08:37:07.655Z,46.97
2018-03-03T08:39:38.846Z,41.88
2018-03-03T08:42:10.423Z,36.45
2018-03-03T08:44:42.072Z,39.15
2018-03-03T08:47:13.473Z,40.45
2018-03-03T08:49:45.714Z,36.22
2018-03-03T08:52:17.086Z,42.65
2018-03-03T08:54:48.338Z,42.62
2018-03-03T08:57:20.000Z,37.53
2018-03-03T08:59:51.297Z,36.97
2018-03-03T09:02:22.554Z,36.13
2018-03-03T09:04:53.787Z,37.63
2018-03-03T09:07:24.991Z,38.08
2018-03-03T09:09:56.191Z,35.45
2018-03-03T09:12:27.496Z,30.12
2018-03-03T09:14:58.730Z,30.85
2018-03-03T09:17:29.964Z,32.35
2018-03-03T09:20:01.248Z,29.05
2018-03-03T09:22:32.504Z,29.83
2018-03-03T09:25:04.118Z,34.20
2018-03-03T09:27:35.430Z,30.92
2018-03-03T09:30:07.420Z,33.95
2018-03-03T09:32:39.021Z,34.22
2018-03-03T09:35:10.189Z,31.85
2018-03-03T09:37:42.227Z,32.47
2018-03-03T09:40:13.409Z,35.72
2018-03-03T09:42:45.692Z,32.90
2018-03-03T09:45:16.924Z,32.70
2018-03-03T09:47:48.903Z,31.10
2018-03-03T09:50:20.083Z,27.27
2018-03-03T09:52:51.332Z,33.53
2018-03-03T09:55:22.540Z,34.03
2018-03-03T09:57:53.870Z,34.45
2018-03-03T10:00:25.176Z,32.60
2018-03-03T10:02:56.412Z,29.70
2018-03-03T10:05:27.653Z,33.17
2018-03-03T10:07:58.881Z,33.33
2018-03-03T10:10:30.123Z,29.92
2018-03-03T10:13:01.309Z,31.87
2018-03-03T10:15:33.269Z,34.13
2018-03-03T10:18:05.262Z,36.03
2018-03-03T10:20:36.478Z,31.50
2018-03-03T10:23:08.385Z,38.75
2018-03-03T10:25:39.725Z,36.65
2018-03-03T10:28:10.977Z,28.77
2018-03-03T10:30:42.204Z,33.30
2018-03-03T10:33:13.454Z,31.12
2018-03-03T10:35:44.640Z,33.88
2018-03-03T10:38:15.997Z,36.95
2018-03-03T10:40:47.918Z,33.22
2018-03-03T10:43:19.248Z,33.30
2018-03-03T10:45:50.494Z,29.73
2018-03-03T10:48:21.792Z,28.42
2018-03-03T10:50:53.004Z,31.80
2018-03-03T10:53:24.231Z,29.23
2018-03-03T10:55:55.416Z,27.77
2018-03-03T10:58:27.562Z,23.33
2018-03-03T11:00:59.336Z,28.00
2018-03-03T11:03:31.327Z,28.42
2018-03-03T11:06:03.371Z,26.50
2018-03-03T11:08:34.553Z,27.05
2018-03-03T11:11:06.101Z,25.60
2018-03-03T11:13:37.291Z,25.30
2018-03-03T11:16:08.621Z,25.02
2018-03-03T11:18:39.830Z,26.40
2018-03-03T11:21:11.882Z,26.87
2018-03-03T11:23:43.130Z,27.75
2018-03-03T11:26:15.150Z,27.95
2018-03-03T11:28:46.809Z,27.80
2018-03-03T11:31:18.021Z,29.95
2018-03-03T11:33:49.261Z,25.60
2018-03-03T11:36:20.440Z,24.98
2018-03-03T11:38:51.771Z,24.83
2018-03-03T11:41:22.962Z,26.55
2018-03-03T11:43:54.224Z,21.33
2018-03-03T11:46:25.410Z,22.85
2018-03-03T11:48:56.934Z,24.75
2018-03-03T11:51:28.183Z,22.37
2018-03-03T11:53:59.488Z,27.23
2018-03-03T11:56:31.419Z,24.67
2018-03-03T11:59:02.793Z,24.23
2018-03-03T12:01:34.784Z,27.95
2018-03-03T12:04:06.024Z,30.27
2018-03-03T12:06:37.281Z,25.02
2018-03-03T12:09:08.517Z,23.45
2018-03-03T12:11:39.788Z,23.23
2018-03-03T12:14:11.043Z,26.62
2018-03-03T12:16:42.564Z,23.55
2018-03-03T12:19:13.836Z,23.67
2018-03-03T12:21:45.152Z,22.55
2018-03-03T12:24:16.423Z,23.52
2018-03-03T12:26:47.679Z,22.05
2018-03-03T12:29:18.984Z,28.83
2018-03-03T12:31:50.204Z,24.58
2018-03-03T12:34:21.602Z,21.45
2018-03-03T12:36:52.803Z,25.12
2018-03-03T12:39:24.078Z,26.60
2018-03-03T12:41:55.820Z,26.08
2018-03-03T12:44:27.102Z,29.73
2018-03-03T12:46:58.365Z,30.67
2018-03-03T12:49:30.329Z,27.35
2018-03-03T12:52:02.293Z,27.10
2018-03-03T12:54:34.247Z,27.70
2018-03-03T12:57:05.463Z,28.33
2018-03-03T12:59:36.734Z,23.93
2018-03-03T13:02:07.980Z,28.90
2018-03-03T13:04:39.269Z,32.57
2018-03-03T13:07:10.528Z,27.40
2018-03-03T13:09:41.759Z,26.43
2018-03-03T13:12:12.956Z,28.55
2018-03-03T13:14:44.494Z,30.77
2018-03-03T13:17:15.697Z,33.17
2018-03-03T13:19:46.993Z,28.13
2018-03-03T13:22:18.197Z,32.80
2018-03-03T13:24:49.854Z,28.30
2018-03-03T13:27:21.155Z,27.37
2018-03-03T13:29:53.490Z,26.33
2018-03-03T13:32:25.449Z,30.40
2018-03-03T13:34:56.708Z,34.95
2018-03-03T13:37:27.939Z,30.80
2018-03-03T13:39:59.159Z,32.53
2018-03-03T13:42:30.380Z,25.35
2018-03-03T13:45:01.764Z,29.83
2018-03-03T13:47:33.320Z,30.87
2018-03-03T13:50:04.604Z,33.50
2018-03-03T13:52:36.941Z,25.50
2018-03-03T13:55:08.133Z,30.80
2018-03-03T13:57:40.486Z,31.30
2018-03-03T14:00:12.512Z,28.07
2018-03-03T14:02:43.962Z,29.37
2018-03-03T14:05:15.167Z,27.50
2018-03-03T14:07:46.529Z,30.73
2018-03-03T14:10:17.712Z,32.87
2018-03-03T14:12:48.957Z,34.20
2018-03-03T14:15:20.216Z,30.43
2018-03-03T14:17:51.436Z,30.30
2018-03-03T14:20:23.063Z,31.60
2018-03-03T14:22:54.264Z,27.90
2018-03-03T14:25:25.606Z,30.30
2018-03-03T14:27:57.542Z,30.40
2018-03-03T14:30:28.792Z,27.33
2018-03-03T14:33:00.040Z,31.93
2018-03-03T14:35:31.307Z,29.97
2018-03-03T14:38:03.244Z,29.53
2018-03-03T14:40:35.507Z,30.60
2018-03-03T14:43:06.748Z,30.87
2018-03-03T14:45:38.046Z,28.17
2018-03-03T14:48:09.647Z,28.10
2018-03-03T14:50:40.842Z,27.80
2018-03-03T14:53:12.150Z,28.80
2018-03-03T14:55:43.326Z,27.87
2018-03-03T14:58:15.337Z,25.07
2018-03-03T15:00:46.544Z,27.37
2018-03-03T15:03:17.849Z,24.07
2018-03-03T15:05:49.087Z,25.43
2018-03-03T15:08:20.712Z,26.40
2018-03-03T15:10:51.931Z,25.88
2018-03-03T15:13:23.899Z,26.90
2018-03-03T15:15:55.121Z,25.03
2018-03-03T15:18:26.346Z,25.83
2018-03-03T15:20:57.688Z,28.83
2018-03-03T15:23:28.890Z,26.17
2018-03-03T15:26:00.095Z,25.80
2018-03-03T15:28:32.315Z,23.67
2018-03-03T15:31:03.551Z,24.80
2018-03-03T15:33:34.756Z,28.27
2018-03-03T15:36:06.008Z,29.60
2018-03-03T15:38:37.593Z,25.60
2018-03-03T15:41:08.829Z,29.87
2018-03-03T15:43:40.410Z,25.57
2018-03-03T15:46:11.698Z,27.67
2018-03-03T15:48:43.282Z,27.70
2018-03-03T15:51:14.445Z,26.80
2018-03-03T15:53:46.030Z,28.00
2018-03-03T15:56:17.967Z,28.00
2018-03-03T15:58:49.226Z,29.57
2018-03-03T16:01:20.575Z,28.90
2018-03-03T16:03:51.762Z,26.80
2018-03-03T16:06:23.030Z,25.67
2018-03-03T16:08:54.241Z,32.25
2018-03-03T16:11:25.494Z,27.92
2018-03-03T16:13:56.970Z,26.47
2018-03-03T16:16:28.174Z,25.37
2018-03-03T16:18:59.432Z,28.67
2018-03-03T16:21:30.724Z,28.67
2018-03-03T16:24:01.912Z,31.93
2018-03-03T16:26:33.173Z,28.58
2018-03-03T16:29:04.400Z,31.80
2018-03-03T16:31:35.605Z,25.67
2018-03-03T16:34:06.844Z,28.50
2018-03-03T16:36:38.077Z,30.62
2018-03-03T16:39:09.264Z,32.00
2018-03-03T16:41:40.529Z,45.08
2018-03-03T16:44:11.776Z,48.87
2018-03-03T16:46:42.993Z,37.53
2018-03-03T16:49:14.904Z,30.87
2018-03-03T16:51:46.174Z,33.27
2018-03-03T16:54:17.372Z,32.08
2018-03-03T16:56:48.602Z,28.17
2018-03-03T16:59:19.779Z,32.38
2018-03-03T17:01:51.080Z,34.03
2018-03-03T17:04:22.272Z,31.37
2018-03-03T17:06:53.623Z,33.13
2018-03-03T17:09:24.844Z,37.15
2018-03-03T17:11:56.067Z,36.88
2018-03-03T17:14:27.511Z,33.97
2018-03-03T17:16:59.525Z,41.03
2018-03-03T17:19:30.724Z,30.58
2018-03-03T17:22:02.105Z,30.27
2018-03-03T17:24:33.365Z,30.10
2018-03-03T17:27:04.608Z,34.45
2018-03-03T17:29:35.865Z,29.63
2018-03-03T17:32:07.099Z,35.67
2018-03-03T17:34:38.344Z,40.47
2018-03-03T17:37:09.675Z,34.83
2018-03-03T17:39:40.930Z,38.47
2018-03-03T17:42:12.188Z,35.72
2018-03-03T17:44:44.948Z,32.97
2018-03-03T17:47:16.179Z,33.33
2018-03-03T17:49:47.379Z,28.15
2018-03-03T17:52:19.373Z,32.25
2018-03-03T17:54:50.596Z,33.58
2018-03-03T17:57:21.826Z,35.20
2018-03-03T17:59:53.784Z,34.60
2018-03-03T18:02:25.840Z,34.67
2018-03-03T18:04:57.036Z,36.15
2018-03-03T18:07:28.591Z,33.83
2018-03-03T18:09:59.777Z,32.50
2018-03-03T18:12:34.716Z,30.60
2018-03-03T18:15:07.277Z,38.95
2018-03-03T18:17:38.572Z,32.60
2018-03-03T18:20:10.046Z,30.58
2018-03-03T18:22:41.325Z,31.45
2018-03-03T18:25:12.562Z,31.95
2018-03-03T18:27:43.821Z,34.38
2018-03-03T18:30:15.819Z,34.33
2018-03-03T18:32:47.075Z,34.03
2018-03-03T18:35:18.640Z,41.17
2018-03-03T18:37:49.816Z,38.58
2018-03-03T18:40:21.416Z,34.40
2018-03-03T18:42:53.251Z,35.05
2018-03-03T18:45:24.492Z,34.92
2018-03-03T18:47:56.447Z,33.85
2018-03-03T18:50:28.452Z,34.15
2018-03-03T18:52:59.608Z,35.35
2018-03-03T18:55:30.831Z,31.73
2018-03-03T18:58:02.085Z,32.42
2018-03-03T19:00:33.353Z,32.33
2018-03-03T19:03:04.661Z,34.55
2018-03-03T19:05:36.624Z,33.40
2018-03-03T19:08:07.881Z,34.53
2018-03-03T19:10:39.099Z,32.47
2018-03-03T19:13:10.272Z,36.75
2018-03-03T19:15:41.522Z,33.00
2018-03-03T19:18:12.777Z,32.75
2018-03-03T19:20:44.051Z,36.53
2018-03-03T19:23:15.417Z,34.30
2018-03-03T19:25:46.608Z,36.10
2018-03-03T19:28:17.853Z,37.15
2018-03-03T19:30:49.226Z,34.17
2018-03-03T19:33:20.501Z,32.38
2018-03-03T19:35:51.716Z,37.05
2018-03-03T19:38:23.036Z,36.50
2018-03-03T19:40:54.281Z,57.05
2018-03-03T19:43:25.515Z,61.37
2018-03-03T19:45:56.754Z,42.25
2018-03-03T19:48:27.989Z,45.00
2018-03-03T19:50:59.245Z,42.25
2018-03-03T19:53:30.481Z,34.88
2018-03-03T19:56:02.104Z,36.17
2018-03-03T19:58:33.280Z,40.47
2018-03-03T20:01:04.828Z,33.67
2018-03-03T20:03:36.074Z,39.40
2018-03-03T20:06:07.440Z,36.63
2018-03-03T20:08:38.634Z,43.95
2018-03-03T20:11:10.644Z,35.65
2018-03-03T20:13:41.867Z,35.83
2018-03-03T20:16:13.439Z,37.70
2018-03-03T20:18:44.668Z,38.65
2018-03-03T20:21:16.003Z,37.60
2018-03-03T20:23:47.235Z,38.75
2018-03-03T20:26:18.423Z,44.80
2018-03-03T20:28:49.853Z,39.78
2018-03-03T20:31:21.137Z,38.63
2018-03-03T20:33:52.321Z,43.08
2018-03-03T20:36:23.617Z,37.17
2018-03-03T20:38:55.121Z,35.60
2018-03-03T20:41:26.886Z,33.33
2018-03-03T20:43:58.181Z,36.20
2018-03-03T20:46:29.618Z,37.60
2018-03-03T20:49:00.895Z,35.70
2018-03-03T20:51:32.954Z,41.20
2018-03-03T20:54:05.132Z,35.08
2018-03-03T20:56:37.445Z,34.28
2018-03-03T20:59:09.114Z,43.47
2018-03-03T21:01:40.305Z,34.03
2018-03-03T21:04:11.565Z,38.55
2018-03-03T21:06:42.738Z,37.08
2018-03-03T21:09:14.075Z,40.97
2018-03-03T21:11:50.306Z,35.08
2018-03-03T21:14:22.079Z,33.20
2018-03-03T21:16:53.269Z,35.55
2018-03-03T21:19:24.734Z,38.25
2018-03-03T21:21:56.739Z,36.25
2018-03-03T21:24:28.069Z,40.03
2018-03-03T21:26:59.697Z,36.05
2018-03-03T21:29:31.656Z,38.28
2018-03-03T21:32:03.679Z,34.88
2018-03-03T21:34:35.247Z,36.70
2018-03-03T21:37:06.521Z,37.92
2018-03-03T21:39:38.751Z,37.33
2018-03-03T21:42:09.958Z,40.22
2018-03-03T21:44:41.170Z,38.85
2018-03-03T21:47:13.282Z,37.28
2018-03-03T21:49:44.586Z,37.97
2018-03-03T21:52:16.843Z,39.97
2018-03-03T21:54:48.078Z,39.80
2018-03-03T21:57:19.997Z,39.03
2018-03-03T21:59:51.550Z,40.90
2018-03-03T22:02:22.810Z,44.70
2018-03-03T22:04:54.086Z,34.70
2018-03-03T22:07:25.528Z,40.75
2018-03-03T22:09:56.761Z,42.65
2018-03-03T22:12:27.948Z,39.30
2018-03-03T22:14:59.283Z,40.65
2018-03-03T22:17:31.062Z,37.45
2018-03-03T22:20:02.432Z,40.12
2018-03-03T22:22:33.680Z,32.75
2018-03-03T22:25:04.941Z,42.00
2018-03-03T22:27:36.144Z,38.65
2018-03-03T22:30:07.337Z,39.20
2018-03-03T22:32:38.549Z,45.28
2018-03-03T22:35:09.731Z,40.47
2018-03-03T22:37:41.870Z,45.55
2018-03-03T22:40:13.219Z,39.85
2018-03-03T22:42:44.450Z,33.60
2018-03-03T22:45:17.135Z,37.85
2018-03-03T22:47:49.142Z,43.75
2018-03-03T22:50:20.536Z,35.40
2018-03-03T22:52:51.728Z,43.08
2018-03-03T22:55:23.056Z,39.63
2018-03-03T22:57:54.226Z,38.75
2018-03-03T23:00:25.578Z,43.35
2018-03-03T23:02:56.770Z,39.05
2018-03-03T23:05:28.288Z,39.40
2018-03-03T23:07:59.860Z,42.22
2018-03-03T23:10:31.021Z,40.45
2018-03-03T23:13:02.252Z,46.08
2018-03-03T23:15:33.457Z,42.50
2018-03-03T23:18:04.667Z,40.58
2018-03-03T23:20:35.808Z,41.72
2018-03-03T23:23:07.107Z,42.22
2018-03-03T23:25:38.333Z,39.95
2018-03-03T23:28:10.443Z,43.28
2018-03-03T23:30:41.610Z,42.90
2018-03-03T23:33:12.819Z,43.60
2018-03-03T23:35:43.995Z,50.28
2018-03-03T23:38:15.187Z,42.92
2018-03-03T23:40:46.363Z,44.97
2018-03-03T23:43:17.889Z,42.17
2018-03-03T23:45:49.155Z,46.88
2018-03-03T23:48:20.574Z,43.87
2018-03-03T23:50:51.747Z,44.22
2018-03-03T23:53:22.988Z,44.67
2018-03-03T23:55:54.187Z,44.33
2018-03-03T23:58:25.687Z,46.45
